createdAt,value
2019-03-12T00:00:35.267Z,32.33
2019-03-12T00:01:40.319Z,29.10
2019-03-12T00:02:44.607Z,36.30
2019-03-12T00:03:48.927Z,22.65
2019-03-12T00:04:53.246Z,27.80
2019-03-12T00:05:57.548Z,27.10
2019-03-12T00:07:01.885Z,36.20
2019-03-12T00:08:06.444Z,29.40
2019-03-12T00:09:10.803Z,25.48
2019-03-12T00:10:15.189Z,27.52
2019-03-12T00:11:19.539Z,33.30
2019-03-12T00:12:23.877Z,28.35
2019-03-12T00:13:28.218Z,29.92
2019-03-12T00:14:32.541Z,27.52
2019-03-12T00:15:36.956Z,30.68
2019-03-12T00:16:41.372Z,25.37
2019-03-12T00:17:45.750Z,25.05
2019-03-12T00:18:50.120Z,35.80
2019-03-12T00:19:54.431Z,34.48
2019-03-12T00:20:58.834Z,35.30
2019-03-12T00:22:03.530Z,27.42
2019-03-12T00:23:07.916Z,45.38
2019-03-12T00:24:12.216Z,28.27
2019-03-12T00:25:16.568Z,24.12
2019-03-12T00:26:20.850Z,30.82
2019-03-12T00:27:25.225Z,36.28
2019-03-12T00:28:29.513Z,25.92
2019-03-12T00:29:33.858Z,34.48
2019-03-12T00:30:38.186Z,40.38
2019-03-12T00:31:42.646Z,34.03
2019-03-12T00:32:47.075Z,25.92
2019-03-12T00:33:51.402Z,36.58
2019-03-12T00:34:55.717Z,30.72
2019-03-12T00:36:00.053Z,33.42
2019-03-12T00:37:04.362Z,29.98
2019-03-12T00:38:08.663Z,38.28
2019-03-12T00:39:13.037Z,34.80
2019-03-12T00:40:17.369Z,45.63
2019-03-12T00:41:21.697Z,46.10
2019-03-12T00:42:26.091Z,38.48
2019-03-12T00:43:30.378Z,46.35
2019-03-12T00:44:34.743Z,42.20
2019-03-12T00:45:39.160Z,42.90
2019-03-12T00:46:43.457Z,44.23
2019-03-12T00:47:47.822Z,46.60
2019-03-12T00:48:52.135Z,37.40
2019-03-12T00:49:56.458Z,49.80
2019-03-12T00:51:00.858Z,47.53
2019-03-12T00:52:05.307Z,45.17
2019-03-12T00:53:09.666Z,42.48
2019-03-12T00:54:13.947Z,43.20
2019-03-12T00:55:18.259Z,36.15
2019-03-12T00:56:22.622Z,39.92
2019-03-12T00:57:26.962Z,36.45
2019-03-12T00:58:31.265Z,31.17
2019-03-12T00:59:35.570Z,34.23
2019-03-12T01:00:39.909Z,36.35
2019-03-12T01:01:44.256Z,31.57
2019-03-12T01:02:48.586Z,25.70
2019-03-12T01:03:52.944Z,33.63
2019-03-12T01:04:57.254Z,31.52
2019-03-12T01:06:01.606Z,31.12
2019-03-12T01:07:05.979Z,30.20
2019-03-12T01:08:10.285Z,30.72
2019-03-12T01:09:14.654Z,29.65
2019-03-12T01:10:19.094Z,28.92
2019-03-12T01:11:23.598Z,34.53
2019-03-12T01:12:27.941Z,29.85
2019-03-12T01:13:32.472Z,35.80
2019-03-12T01:14:36.849Z,37.23
2019-03-12T01:15:41.247Z,36.28
2019-03-12T01:16:45.586Z,31.42
2019-03-12T01:17:49.984Z,30.37
2019-03-12T01:18:54.344Z,38.28
2019-03-12T01:19:58.706Z,29.92
2019-03-12T01:21:03.137Z,29.02
2019-03-12T01:22:07.641Z,30.02
2019-03-12T01:23:11.955Z,27.22
2019-03-12T01:24:16.249Z,26.37
2019-03-12T01:25:20.644Z,27.45
2019-03-12T01:26:24.995Z,27.55
2019-03-12T01:27:29.365Z,28.55
2019-03-12T01:28:33.689Z,29.70
2019-03-12T01:29:38.001Z,31.48
2019-03-12T01:30:42.291Z,34.38
2019-03-12T01:31:46.616Z,24.72
2019-03-12T01:32:50.940Z,26.60
2019-03-12T01:33:55.234Z,33.40
2019-03-12T01:34:59.536Z,31.87
2019-03-12T01:36:03.981Z,26.87
2019-03-12T01:37:08.488Z,24.57
2019-03-12T01:38:12.861Z,33.90
2019-03-12T01:39:17.183Z,29.37
2019-03-12T01:40:21.501Z,32.33
2019-03-12T01:41:25.787Z,29.42
2019-03-12T01:42:30.122Z,24.00
2019-03-12T01:43:34.425Z,30.75
2019-03-12T01:44:38.836Z,22.90
2019-03-12T01:45:43.250Z,27.17
2019-03-12T01:46:47.626Z,29.50
2019-03-12T01:47:52.025Z,24.27
2019-03-12T01:48:56.410Z,32.40
2019-03-12T01:50:00.740Z,27.82
2019-03-12T01:51:05.149Z,27.65
2019-03-12T01:52:09.633Z,27.50
2019-03-12T01:53:13.999Z,27.20
2019-03-12T01:54:18.353Z,22.85
2019-03-12T01:55:22.761Z,21.82
2019-03-12T01:56:27.058Z,23.60
2019-03-12T01:57:31.384Z,21.85
2019-03-12T01:58:35.695Z,30.10
2019-03-12T01:59:40.083Z,27.02
2019-03-12T02:00:44.481Z,22.60
2019-03-12T02:01:48.796Z,22.80
2019-03-12T02:02:53.178Z,22.73
2019-03-12T02:03:57.571Z,19.62
2019-03-12T02:05:01.873Z,23.65
2019-03-12T02:06:06.334Z,32.53
2019-03-12T02:07:10.607Z,17.15
2019-03-12T02:08:15.030Z,23.47
2019-03-12T02:09:20.041Z,23.12
2019-03-12T02:10:24.464Z,22.90
2019-03-12T02:11:28.757Z,23.07
2019-03-12T02:12:33.126Z,26.10
2019-03-12T02:13:37.443Z,20.48
2019-03-12T02:14:41.786Z,17.52
2019-03-12T02:15:46.223Z,22.13
2019-03-12T02:16:50.606Z,24.95
2019-03-12T02:17:54.915Z,15.83
2019-03-12T02:18:59.237Z,21.02
2019-03-12T02:20:04.332Z,22.40
2019-03-12T02:21:08.788Z,21.25
2019-03-12T02:22:13.180Z,22.98
2019-03-12T02:23:17.546Z,26.42
2019-03-12T02:24:22.035Z,20.08
2019-03-12T02:25:26.393Z,21.97
2019-03-12T02:26:30.769Z,26.65
2019-03-12T02:27:35.081Z,23.27
2019-03-12T02:28:39.494Z,22.48
2019-03-12T02:29:43.854Z,18.48
2019-03-12T02:30:48.263Z,23.60
2019-03-12T02:31:52.617Z,22.82
2019-03-12T02:32:57.034Z,21.80
2019-03-12T02:34:01.392Z,22.35
2019-03-12T02:35:06.198Z,24.18
2019-03-12T02:36:10.553Z,28.42
2019-03-12T02:37:14.919Z,23.92
2019-03-12T02:38:19.359Z,24.95
2019-03-12T02:39:23.769Z,25.70
2019-03-12T02:40:28.148Z,19.25
2019-03-12T02:41:32.448Z,20.43
2019-03-12T02:42:36.897Z,22.60
2019-03-12T02:43:41.374Z,24.25
2019-03-12T02:44:45.719Z,24.25
2019-03-12T02:45:50.102Z,27.22
2019-03-12T02:46:54.483Z,22.30
2019-03-12T02:47:58.845Z,29.98
2019-03-12T02:49:03.206Z,29.35
2019-03-12T02:50:08.887Z,24.00
2019-03-12T02:51:13.197Z,26.40
2019-03-12T02:52:17.545Z,26.73
2019-03-12T02:53:21.913Z,24.18
2019-03-12T02:54:26.318Z,27.02
2019-03-12T02:55:30.671Z,29.12
2019-03-12T02:56:35.065Z,29.35
2019-03-12T02:57:39.662Z,32.03
2019-03-12T02:58:43.985Z,26.65
2019-03-12T02:59:48.348Z,32.38
2019-03-12T03:00:52.663Z,30.97
2019-03-12T03:01:56.974Z,30.23
2019-03-12T03:03:01.403Z,32.40
2019-03-12T03:04:05.712Z,37.93
2019-03-12T03:05:10.127Z,35.17
2019-03-12T03:06:19.449Z,35.43
2019-03-12T03:07:42.852Z,26.82
2019-03-12T03:08:47.164Z,33.45
2019-03-12T03:09:51.550Z,28.73
2019-03-12T03:10:55.856Z,27.95
2019-03-12T03:12:00.360Z,30.00
2019-03-12T03:13:05.082Z,30.95
2019-03-12T03:14:29.339Z,26.60
2019-03-12T03:15:37.970Z,29.32
2019-03-12T03:16:42.301Z,30.95
2019-03-12T03:17:46.608Z,34.53
2019-03-12T03:18:50.941Z,32.33
2019-03-12T03:19:55.253Z,32.23
2019-03-12T03:20:59.594Z,27.45
2019-03-12T03:22:03.896Z,30.80
2019-03-12T03:23:08.198Z,28.83
2019-03-12T03:24:12.520Z,30.23
2019-03-12T03:25:16.995Z,32.03
2019-03-12T03:26:21.312Z,29.30
2019-03-12T03:28:20.371Z,28.92
2019-03-12T03:29:24.752Z,28.12
2019-03-12T03:30:29.205Z,27.98
2019-03-12T03:31:33.508Z,28.17
2019-03-12T03:32:37.813Z,32.28
2019-03-12T03:33:42.147Z,29.02
2019-03-12T03:34:46.486Z,30.72
2019-03-12T03:35:50.837Z,33.50
2019-03-12T03:36:55.256Z,27.95
2019-03-12T03:37:59.682Z,30.62
2019-03-12T03:39:04.695Z,28.92
2019-03-12T03:40:10.897Z,31.48
2019-03-12T03:41:15.292Z,28.50
2019-03-12T03:42:19.908Z,31.07
2019-03-12T03:43:24.337Z,31.73
2019-03-12T03:44:28.782Z,35.15
2019-03-12T03:45:33.152Z,33.78
2019-03-12T03:46:37.627Z,36.58
2019-03-12T03:47:41.938Z,43.48
2019-03-12T03:48:46.286Z,37.20
2019-03-12T03:49:50.737Z,35.55
2019-03-12T03:50:55.203Z,36.65
2019-03-12T03:51:59.554Z,45.88
2019-03-12T03:53:04.032Z,41.50
2019-03-12T03:54:08.585Z,45.63
2019-03-12T03:55:14.592Z,38.88
2019-03-12T03:56:19.083Z,43.35
2019-03-12T03:57:23.411Z,43.63
2019-03-12T03:58:27.807Z,49.40
2019-03-12T03:59:32.189Z,47.55
2019-03-12T04:00:36.541Z,45.00
2019-03-12T04:01:40.948Z,44.80
2019-03-12T04:02:45.425Z,53.45
2019-03-12T04:03:49.759Z,53.25
2019-03-12T04:04:54.317Z,54.13
2019-03-12T04:05:58.693Z,49.25
2019-03-12T04:07:03.085Z,45.95
2019-03-12T04:08:07.475Z,53.10
2019-03-12T04:09:12.022Z,57.25
2019-03-12T04:10:16.589Z,51.45
2019-03-12T04:11:20.897Z,52.62
2019-03-12T04:12:25.254Z,51.75
2019-03-12T04:13:29.638Z,45.58
2019-03-12T04:14:34.070Z,47.62
2019-03-12T04:15:38.389Z,52.17
2019-03-12T04:16:42.705Z,49.55
2019-03-12T04:17:47.230Z,51.02
2019-03-12T04:18:51.685Z,52.10
2019-03-12T04:19:56.172Z,48.30
2019-03-12T04:21:00.670Z,49.50
2019-03-12T04:22:04.970Z,48.68
2019-03-12T04:23:09.306Z,46.98
2019-03-12T04:24:13.667Z,47.25
2019-03-12T04:25:18.033Z,63.65
2019-03-12T04:26:22.447Z,43.75
2019-03-12T04:27:26.857Z,45.58
2019-03-12T04:28:31.197Z,48.50
2019-03-12T04:29:35.527Z,44.05
2019-03-12T04:30:39.919Z,52.43
2019-03-12T04:31:44.259Z,47.67
2019-03-12T04:32:48.647Z,48.78
2019-03-12T04:34:20.117Z,52.67
2019-03-12T04:35:24.444Z,48.90
2019-03-12T04:36:28.756Z,53.75
2019-03-12T04:37:33.066Z,53.55
2019-03-12T04:38:37.504Z,47.75
2019-03-12T04:39:41.880Z,50.03
2019-03-12T04:40:46.184Z,54.35
2019-03-12T04:41:50.723Z,53.90
2019-03-12T04:42:55.035Z,57.43
2019-03-12T04:43:59.376Z,57.62
2019-03-12T04:45:04.590Z,55.38
2019-03-12T04:46:08.903Z,62.60
2019-03-12T04:47:13.217Z,59.77
2019-03-12T04:48:17.596Z,65.42
2019-03-12T04:49:21.920Z,63.70
2019-03-12T04:50:26.231Z,58.70
2019-03-12T04:51:30.660Z,54.30
2019-03-12T04:52:35.072Z,57.27
2019-03-12T04:53:39.396Z,60.28
2019-03-12T04:54:43.728Z,59.65
2019-03-12T04:55:48.053Z,58.85
2019-03-12T04:56:52.389Z,53.48
2019-03-12T04:57:56.686Z,58.33
2019-03-12T04:59:01.060Z,53.10
2019-03-12T05:00:06.625Z,60.33
2019-03-12T05:01:10.944Z,61.68
2019-03-12T05:02:15.269Z,59.35
2019-03-12T05:03:19.659Z,56.55
2019-03-12T05:04:23.966Z,60.28
2019-03-12T05:05:28.277Z,63.08
2019-03-12T05:06:32.687Z,70.45
2019-03-12T05:07:37.097Z,54.98
2019-03-12T05:08:41.522Z,72.97
2019-03-12T05:09:45.829Z,71.85
2019-03-12T05:10:50.181Z,62.85
2019-03-12T05:11:54.497Z,71.87
2019-03-12T05:12:58.917Z,76.02
2019-03-12T05:14:25.875Z,70.15
2019-03-12T05:15:30.197Z,73.87
2019-03-12T05:16:34.567Z,82.92
2019-03-12T05:17:38.897Z,78.55
2019-03-12T05:18:43.224Z,77.85
2019-03-12T05:19:47.662Z,84.62
2019-03-12T05:20:51.966Z,90.97
2019-03-12T05:21:56.376Z,84.10
2019-03-12T05:23:00.716Z,87.15
2019-03-12T05:24:05.067Z,91.95
2019-03-12T05:25:10.555Z,86.35
2019-03-12T05:26:14.911Z,93.27
2019-03-12T05:27:19.376Z,86.15
2019-03-12T05:28:23.705Z,90.00
2019-03-12T05:29:28.090Z,98.05
2019-03-12T05:30:32.525Z,83.72
2019-03-12T05:31:36.909Z,88.87
2019-03-12T05:32:41.349Z,77.22
2019-03-12T05:33:45.753Z,84.80
2019-03-12T05:34:50.242Z,86.37
2019-03-12T05:35:54.576Z,91.78
2019-03-12T05:36:58.994Z,78.97
2019-03-12T05:38:03.386Z,97.80
2019-03-12T05:39:07.934Z,88.40
2019-03-12T05:40:13.061Z,86.53
2019-03-12T05:41:17.506Z,96.10
2019-03-12T05:42:21.884Z,93.15
2019-03-12T05:43:26.241Z,99.00
2019-03-12T05:44:30.652Z,81.12
2019-03-12T05:45:35.120Z,84.03
2019-03-12T05:46:39.509Z,83.80
2019-03-12T05:47:43.963Z,86.32
2019-03-12T05:48:48.391Z,84.92
2019-03-12T05:49:52.812Z,96.28
2019-03-12T05:50:57.189Z,93.35
2019-03-12T05:52:01.652Z,81.63
2019-03-12T05:53:15.359Z,86.12
2019-03-12T05:54:19.712Z,81.78
2019-03-12T05:55:24.083Z,77.27
2019-03-12T05:56:28.503Z,91.05
2019-03-12T05:57:32.921Z,73.83
2019-03-12T05:58:37.284Z,76.60
2019-03-12T05:59:41.856Z,79.22
2019-03-12T06:00:46.197Z,60.92
2019-03-12T06:01:50.694Z,61.05
2019-03-12T06:02:55.379Z,68.45
2019-03-12T06:03:59.981Z,62.00
2019-03-12T06:05:04.821Z,73.45
2019-03-12T06:06:09.254Z,57.15
2019-03-12T06:07:13.637Z,67.27
2019-03-12T06:08:18.053Z,58.15
2019-03-12T06:09:30.322Z,48.52
2019-03-12T06:10:28.547Z,54.70
2019-03-12T06:11:33.020Z,51.35
2019-03-12T06:12:37.340Z,53.55
2019-03-12T06:13:43.526Z,65.25
2019-03-12T06:14:48.021Z,53.15
2019-03-12T06:15:53.306Z,50.35
2019-03-12T06:16:57.808Z,54.30
2019-03-12T06:18:02.173Z,41.83
2019-03-12T06:19:06.663Z,51.90
2019-03-12T06:20:11.260Z,49.77
2019-03-12T06:21:15.641Z,44.67
2019-03-12T06:22:20.203Z,54.23
2019-03-12T06:23:24.827Z,45.10
2019-03-12T06:24:29.327Z,52.35
2019-03-12T06:25:33.736Z,37.42
2019-03-12T06:26:38.187Z,46.30
2019-03-12T06:27:42.905Z,50.50
2019-03-12T06:28:47.401Z,39.50
2019-03-12T06:29:51.820Z,56.83
2019-03-12T06:31:09.290Z,43.23
2019-03-12T06:32:41.654Z,43.10
2019-03-12T06:33:52.944Z,44.00
2019-03-12T06:35:16.836Z,36.85
2019-03-12T06:36:39.029Z,43.13
2019-03-12T06:37:56.812Z,36.60
2019-03-12T06:39:14.034Z,41.98
2019-03-12T06:40:32.698Z,36.55
2019-03-12T06:41:50.216Z,31.10
2019-03-12T06:43:16.482Z,33.45
2019-03-12T06:44:32.717Z,39.60
2019-03-12T06:46:08.671Z,35.03
2019-03-12T06:47:46.453Z,29.80
2019-03-12T06:49:00.965Z,32.90
2019-03-12T06:50:26.155Z,24.02
2019-03-12T06:51:48.598Z,27.27
2019-03-12T06:53:18.297Z,28.20
2019-03-12T06:54:40.453Z,25.88
2019-03-12T06:56:03.820Z,25.23
2019-03-12T06:57:26.003Z,26.82
2019-03-12T06:59:04.883Z,26.00
2019-03-12T07:00:35.015Z,26.62
2019-03-12T07:02:01.087Z,24.25
2019-03-12T07:03:33.672Z,20.60
2019-03-12T07:04:52.947Z,24.25
2019-03-12T07:06:04.234Z,23.90
2019-03-12T07:07:36.873Z,22.10
2019-03-12T07:09:00.418Z,19.35
2019-03-12T07:10:23.787Z,19.70
2019-03-12T07:11:36.026Z,19.30
2019-03-12T07:12:50.777Z,20.97
2019-03-12T07:14:14.206Z,24.40
2019-03-12T07:15:28.043Z,20.95
2019-03-12T07:16:42.686Z,24.55
2019-03-12T07:18:12.035Z,21.42
2019-03-12T07:19:35.562Z,22.77
2019-03-12T07:20:57.372Z,19.50
2019-03-12T07:22:20.911Z,23.47
2019-03-12T07:23:34.156Z,15.58
2019-03-12T07:25:05.033Z,23.02
2019-03-12T07:26:18.932Z,17.25
2019-03-12T07:27:41.130Z,21.35
2019-03-12T07:28:55.565Z,19.80
2019-03-12T07:30:15.948Z,21.62
2019-03-12T07:31:54.643Z,17.13
2019-03-12T07:33:05.533Z,19.50
2019-03-12T07:34:18.218Z,17.67
2019-03-12T07:35:50.669Z,16.63
2019-03-12T07:37:07.949Z,16.33
2019-03-12T07:38:20.803Z,15.37
2019-03-12T07:39:31.584Z,17.10
2019-03-12T07:41:01.470Z,27.32
2019-03-12T07:42:16.154Z,18.10
2019-03-12T07:43:45.408Z,21.17
2019-03-12T07:45:14.729Z,23.33
2019-03-12T07:46:31.218Z,17.90
2019-03-12T07:47:51.888Z,20.20
2019-03-12T07:49:19.971Z,19.80
2019-03-12T07:50:43.480Z,19.83
2019-03-12T07:52:10.109Z,22.70
2019-03-12T07:53:21.596Z,19.97
2019-03-12T07:54:33.724Z,18.27
2019-03-12T07:56:02.429Z,17.70
2019-03-12T07:57:14.036Z,21.33
2019-03-12T07:58:36.287Z,15.40
2019-03-12T07:59:46.036Z,15.33
2019-03-12T08:01:06.124Z,19.80
2019-03-12T08:02:28.448Z,14.67
2019-03-12T08:03:47.284Z,14.57
2019-03-12T08:05:02.268Z,19.07
2019-03-12T08:06:17.482Z,11.60
2019-03-12T08:07:28.396Z,18.30
2019-03-12T08:09:04.088Z,15.40
2019-03-12T08:10:17.934Z,12.33
2019-03-12T08:11:30.269Z,14.67
2019-03-12T08:12:53.816Z,14.93
2019-03-12T08:14:12.038Z,12.37
2019-03-12T08:15:34.559Z,14.90
2019-03-12T08:16:58.112Z,14.30
2019-03-12T08:18:20.343Z,13.90
2019-03-12T08:19:48.151Z,13.00
2019-03-12T08:21:21.453Z,14.43
2019-03-12T08:22:33.545Z,14.00
2019-03-12T08:23:51.713Z,11.03
2019-03-12T08:25:18.107Z,13.33
2019-03-12T08:26:45.832Z,15.00
2019-03-12T08:28:15.409Z,14.70
2019-03-12T08:29:27.218Z,14.70
2019-03-12T08:30:51.554Z,13.97
2019-03-12T08:32:04.278Z,15.63
2019-03-12T08:33:20.389Z,17.00
2019-03-12T08:34:42.889Z,17.00
2019-03-12T08:36:06.820Z,13.60
2019-03-12T08:37:21.625Z,11.47
2019-03-12T08:38:55.291Z,16.57
2019-03-12T08:40:37.406Z,15.10
2019-03-12T08:42:03.187Z,18.77
2019-03-12T08:43:13.724Z,14.57
2019-03-12T08:44:37.398Z,12.70
2019-03-12T08:46:10.350Z,13.03
2019-03-12T08:47:36.027Z,13.37
2019-03-12T08:48:59.873Z,10.77
2019-03-12T08:50:19.228Z,14.93
2019-03-12T08:51:41.577Z,17.23
2019-03-12T08:52:54.784Z,14.37
2019-03-12T08:54:21.323Z,9.87
2019-03-12T08:55:47.993Z,12.47
2019-03-12T08:57:02.587Z,11.80
2019-03-12T08:58:24.924Z,18.33
2019-03-12T08:59:38.539Z,10.20
2019-03-12T09:00:54.943Z,11.03
2019-03-12T09:02:17.197Z,15.03
2019-03-12T09:03:45.038Z,13.50
2019-03-12T09:05:24.241Z,9.33
2019-03-12T09:06:43.072Z,11.90
2019-03-12T09:08:03.958Z,14.17
2019-03-12T09:09:34.097Z,10.53
2019-03-12T09:11:00.700Z,14.53
2019-03-12T09:12:18.240Z,14.80
2019-03-12T09:13:39.364Z,14.90
2019-03-12T09:15:01.941Z,11.93
2019-03-12T09:16:22.869Z,12.60
2019-03-12T09:17:46.393Z,18.97
2019-03-12T09:19:05.906Z,12.97
2019-03-12T09:20:31.937Z,13.93
2019-03-12T09:21:44.911Z,10.77
2019-03-12T09:23:14.327Z,13.47
2019-03-12T09:24:26.934Z,11.10
2019-03-12T09:25:49.611Z,12.63
2019-03-12T09:27:00.777Z,11.13
2019-03-12T09:28:14.975Z,13.37
2019-03-12T09:29:35.159Z,12.10
2019-03-12T09:30:59.125Z,13.90
2019-03-12T09:32:21.965Z,18.17
2019-03-12T09:33:34.923Z,16.10
2019-03-12T09:34:55.247Z,16.03
2019-03-12T09:36:25.157Z,12.03
2019-03-12T09:37:37.286Z,14.60
2019-03-12T09:38:56.789Z,18.17
2019-03-12T09:40:22.392Z,12.50
2019-03-12T09:41:55.243Z,18.77
2019-03-12T09:43:12.002Z,13.10
2019-03-12T09:44:44.466Z,17.00
2019-03-12T09:46:14.344Z,15.50
2019-03-12T09:47:43.989Z,16.10
2019-03-12T09:49:06.279Z,13.17
2019-03-12T09:50:19.829Z,16.57
2019-03-12T09:51:41.898Z,16.07
2019-03-12T09:52:59.063Z,14.10
2019-03-12T09:54:13.678Z,13.20
2019-03-12T09:55:33.203Z,18.13
2019-03-12T09:56:47.479Z,15.20
2019-03-12T09:58:17.930Z,18.60
2019-03-12T09:59:44.876Z,14.27
2019-03-12T10:01:08.680Z,16.40
2019-03-12T10:02:24.269Z,15.57
2019-03-12T10:03:34.975Z,12.43
2019-03-12T10:04:53.472Z,15.23
2019-03-12T10:06:15.967Z,15.43
2019-03-12T10:07:36.411Z,16.83
2019-03-12T10:08:58.534Z,13.70
2019-03-12T10:10:14.271Z,15.07
2019-03-12T10:11:37.792Z,14.97
2019-03-12T10:12:59.912Z,18.27
2019-03-12T10:14:13.931Z,15.27
2019-03-12T10:15:27.153Z,15.13
2019-03-12T10:16:57.971Z,21.00
2019-03-12T10:18:26.053Z,18.90
2019-03-12T10:19:52.591Z,12.93
2019-03-12T10:21:02.242Z,16.63
2019-03-12T10:22:13.488Z,15.87
2019-03-12T10:23:49.416Z,14.93
2019-03-12T10:25:12.060Z,14.43
2019-03-12T10:26:34.647Z,17.67
2019-03-12T10:27:51.620Z,17.40
2019-03-12T10:29:19.870Z,14.63
2019-03-12T10:30:55.722Z,18.13
2019-03-12T10:32:11.084Z,13.37
2019-03-12T10:33:32.928Z,13.80
2019-03-12T10:34:52.513Z,17.43
2019-03-12T10:36:05.055Z,16.63
2019-03-12T10:37:37.872Z,20.77
2019-03-12T10:39:43.845Z,14.67
2019-03-12T10:41:04.705Z,12.20
2019-03-12T10:42:32.510Z,19.80
2019-03-12T10:43:41.580Z,14.67
2019-03-12T10:44:52.722Z,16.60
2019-03-12T10:46:13.936Z,20.27
2019-03-12T10:47:21.128Z,14.90
2019-03-12T10:48:26.012Z,16.70
2019-03-12T10:49:37.350Z,16.07
2019-03-12T10:50:36.660Z,16.37
2019-03-12T10:51:41.403Z,23.37
2019-03-12T10:52:45.900Z,15.57
2019-03-12T10:53:50.415Z,20.67
2019-03-12T10:54:54.890Z,12.87
2019-03-12T10:55:59.288Z,14.37
2019-03-12T10:57:03.732Z,15.93
2019-03-12T10:58:08.107Z,13.97
2019-03-12T10:59:12.642Z,12.43
2019-03-12T11:00:17.484Z,16.40
2019-03-12T11:01:21.945Z,15.17
2019-03-12T11:02:26.600Z,13.60
2019-03-12T11:03:31.065Z,13.97
2019-03-12T11:04:35.772Z,20.70
2019-03-12T11:05:45.816Z,13.90
2019-03-12T11:06:46.461Z,16.67
2019-03-12T11:07:51.181Z,18.13
2019-03-12T11:08:56.404Z,20.30
2019-03-12T11:10:00.907Z,17.10
2019-03-12T11:11:05.501Z,19.17
2019-03-12T11:12:10.013Z,22.73
2019-03-12T11:13:14.976Z,17.93
2019-03-12T11:14:19.589Z,19.40
2019-03-12T11:15:24.096Z,14.67
2019-03-12T11:16:28.604Z,18.60
2019-03-12T11:17:33.103Z,16.40
2019-03-12T11:18:37.516Z,19.73
2019-03-12T11:19:41.866Z,17.10
2019-03-12T11:20:46.327Z,18.97
2019-03-12T11:21:50.883Z,15.20
2019-03-12T11:22:55.278Z,14.07
2019-03-12T11:23:59.696Z,15.83
2019-03-12T11:25:04.386Z,17.43
2019-03-12T11:26:08.987Z,18.57
2019-03-12T11:27:13.692Z,20.27
2019-03-12T11:28:18.080Z,16.50
2019-03-12T11:29:22.451Z,17.47
2019-03-12T11:30:26.874Z,17.03
2019-03-12T11:31:31.205Z,17.63
2019-03-12T11:32:35.532Z,19.77
2019-03-12T11:33:39.889Z,19.53
2019-03-12T11:34:44.420Z,17.67
2019-03-12T11:35:48.853Z,20.07
2019-03-12T11:36:53.333Z,18.60
2019-03-12T11:37:57.775Z,20.50
2019-03-12T11:39:02.233Z,23.50
2019-03-12T11:40:09.492Z,23.23
2019-03-12T11:41:13.873Z,21.37
2019-03-12T11:42:18.211Z,20.17
2019-03-12T11:43:22.596Z,19.30
2019-03-12T11:44:26.969Z,17.23
2019-03-12T11:45:36.662Z,19.17
2019-03-12T11:46:44.067Z,21.50
2019-03-12T11:47:43.802Z,19.20
2019-03-12T11:48:48.510Z,17.27
2019-03-12T11:49:52.942Z,17.90
2019-03-12T11:50:57.260Z,16.70
2019-03-12T11:52:01.752Z,16.80
2019-03-12T11:53:06.455Z,22.80
2019-03-12T11:54:10.983Z,13.77
2019-03-12T11:55:16.135Z,14.50
2019-03-12T11:56:20.602Z,14.50
2019-03-12T11:57:24.985Z,17.50
2019-03-12T11:58:29.357Z,13.20
2019-03-12T11:59:33.773Z,19.87
2019-03-12T12:00:44.789Z,17.10
2019-03-12T12:01:49.199Z,11.63
2019-03-12T12:02:59.873Z,18.30
2019-03-12T12:03:59.747Z,20.27
2019-03-12T12:05:04.333Z,15.53
2019-03-12T12:06:08.657Z,14.83
2019-03-12T12:07:13.041Z,14.10
2019-03-12T12:08:17.694Z,17.60
2019-03-12T12:09:22.162Z,14.47
2019-03-12T12:10:26.800Z,14.10
2019-03-12T12:11:31.163Z,16.27
2019-03-12T12:12:35.505Z,12.97
2019-03-12T12:13:39.987Z,17.67
2019-03-12T12:14:44.311Z,15.77
2019-03-12T12:15:48.625Z,12.60
2019-03-12T12:16:52.974Z,17.20
2019-03-12T12:17:57.283Z,16.53
2019-03-12T12:19:01.645Z,11.70
2019-03-12T12:20:06.647Z,14.27
2019-03-12T12:21:11.068Z,13.30
2019-03-12T12:22:15.415Z,13.30
2019-03-12T12:23:19.826Z,12.23
2019-03-12T12:24:26.654Z,12.30
2019-03-12T12:25:30.474Z,13.17
2019-03-12T12:26:34.846Z,16.40
2019-03-12T12:27:39.244Z,15.30
2019-03-12T12:28:43.584Z,12.63
2019-03-12T12:29:48.096Z,13.20
2019-03-12T12:30:52.545Z,10.00
2019-03-12T12:31:56.904Z,12.80
2019-03-12T12:33:01.346Z,13.10
2019-03-12T12:34:05.855Z,11.27
2019-03-12T12:35:10.298Z,15.27
2019-03-12T12:36:14.678Z,12.93
2019-03-12T12:37:19.030Z,12.27
2019-03-12T12:38:23.435Z,14.90
2019-03-12T12:39:27.896Z,14.27
2019-03-12T12:40:32.325Z,11.50
2019-03-12T12:41:36.772Z,11.10
2019-03-12T12:42:41.190Z,12.03
2019-03-12T12:43:45.512Z,11.73
2019-03-12T12:44:50.010Z,10.93
2019-03-12T12:45:54.506Z,14.80
2019-03-12T12:46:58.896Z,11.57
2019-03-12T12:48:03.317Z,10.17
2019-03-12T12:49:07.751Z,11.17
2019-03-12T12:50:12.554Z,10.87
2019-03-12T12:51:17.079Z,10.27
2019-03-12T12:52:21.496Z,12.10
2019-03-12T12:53:25.915Z,12.10
2019-03-12T12:54:30.361Z,10.97
2019-03-12T12:55:34.769Z,16.40
2019-03-12T12:56:39.178Z,10.07
2019-03-12T12:57:43.681Z,12.30
2019-03-12T12:58:48.124Z,14.10
2019-03-12T12:59:52.667Z,14.57
2019-03-12T13:00:57.027Z,9.60
2019-03-12T13:02:01.547Z,12.27
2019-03-12T13:03:06.096Z,6.93
2019-03-12T13:04:10.607Z,9.97
2019-03-12T13:05:15.965Z,11.00
2019-03-12T13:06:20.474Z,11.43
2019-03-12T13:07:24.904Z,7.97
2019-03-12T13:08:29.253Z,11.77
2019-03-12T13:09:33.723Z,11.53
2019-03-12T13:10:38.151Z,12.13
2019-03-12T13:11:42.610Z,11.63
2019-03-12T13:12:46.995Z,10.40
2019-03-12T13:13:51.329Z,12.27
2019-03-12T13:14:55.769Z,27.50
2019-03-12T13:16:00.115Z,14.43
2019-03-12T13:17:04.477Z,9.63
2019-03-12T13:18:08.864Z,10.43
2019-03-12T13:19:13.310Z,10.50
2019-03-12T13:20:18.035Z,10.10
2019-03-12T13:21:22.431Z,10.30
2019-03-12T13:22:26.885Z,14.00
2019-03-12T13:23:31.369Z,11.83
2019-03-12T13:24:35.751Z,12.90
2019-03-12T13:25:40.486Z,8.37
2019-03-12T13:26:44.878Z,13.93
2019-03-12T13:27:49.453Z,13.77
2019-03-12T13:28:53.852Z,8.53
2019-03-12T13:29:58.343Z,10.60
2019-03-12T13:31:02.799Z,10.17
2019-03-12T13:32:13.384Z,11.93
2019-03-12T13:33:13.422Z,6.70
2019-03-12T13:34:17.851Z,10.70
2019-03-12T13:35:22.944Z,9.87
2019-03-12T13:36:27.393Z,10.57
2019-03-12T13:37:31.782Z,13.00
2019-03-12T13:38:45.451Z,13.30
2019-03-12T13:39:42.647Z,11.10
2019-03-12T13:40:47.229Z,12.20
2019-03-12T13:41:51.641Z,9.20
2019-03-12T13:42:56.365Z,9.03
2019-03-12T13:44:00.673Z,12.27
2019-03-12T13:45:05.774Z,10.87
2019-03-12T13:46:10.162Z,7.20
2019-03-12T13:47:14.691Z,12.17
2019-03-12T13:48:22.376Z,8.57
2019-03-12T13:49:27.001Z,8.73
2019-03-12T13:50:31.841Z,11.67
2019-03-12T13:51:36.353Z,10.40
2019-03-12T13:52:40.944Z,10.43
2019-03-12T13:53:45.406Z,9.20
2019-03-12T13:54:49.886Z,18.03
2019-03-12T13:55:54.264Z,14.37
2019-03-12T13:56:59.000Z,7.93
2019-03-12T13:58:03.574Z,10.03
2019-03-12T13:59:07.942Z,7.43
2019-03-12T14:00:17.477Z,8.63
2019-03-12T14:01:22.068Z,9.27
2019-03-12T14:02:26.557Z,8.33
2019-03-12T14:03:30.990Z,10.10
2019-03-12T14:04:35.305Z,9.83
2019-03-12T14:05:39.846Z,7.97
2019-03-12T14:06:44.236Z,9.93
2019-03-12T14:07:49.025Z,19.57
2019-03-12T14:08:53.753Z,8.93
2019-03-12T14:09:58.050Z,15.53
2019-03-12T14:11:02.550Z,15.90
2019-03-12T14:12:07.019Z,13.87
2019-03-12T14:13:11.787Z,10.27
2019-03-12T14:14:16.360Z,13.43
2019-03-12T14:15:23.933Z,11.27
2019-03-12T14:16:28.362Z,8.27
2019-03-12T14:17:32.747Z,14.03
2019-03-12T14:18:37.245Z,9.63
2019-03-12T14:19:41.732Z,11.53
2019-03-12T14:20:48.304Z,9.23
2019-03-12T14:21:52.707Z,15.00
2019-03-12T14:22:57.178Z,10.13
2019-03-12T14:24:03.020Z,8.97
2019-03-12T14:25:07.880Z,9.70
2019-03-12T14:26:13.207Z,10.27
2019-03-12T14:27:17.627Z,10.97
2019-03-12T14:28:22.004Z,9.53
2019-03-12T14:29:26.377Z,10.70
2019-03-12T14:30:30.801Z,9.33
2019-03-12T14:31:35.226Z,11.87
2019-03-12T14:32:39.821Z,9.83
2019-03-12T14:33:44.408Z,11.37
2019-03-12T14:34:48.801Z,11.43
2019-03-12T14:35:53.273Z,10.47
2019-03-12T14:36:57.596Z,11.43
2019-03-12T14:38:01.981Z,9.23
2019-03-12T14:39:07.174Z,9.80
2019-03-12T14:40:11.590Z,10.47
2019-03-12T14:41:16.064Z,12.57
2019-03-12T14:42:20.376Z,10.33
2019-03-12T14:43:24.866Z,14.27
2019-03-12T14:44:29.368Z,10.93
2019-03-12T14:45:34.661Z,23.67
2019-03-12T14:46:39.058Z,10.70
2019-03-12T14:47:43.496Z,10.30
2019-03-12T14:48:59.240Z,10.50